Time;durP1;ratioP1;P1;durP2;ratioP2;P2;SDS_P1;SDS_P2;PMS_P1;PMS_P2;Temp;Humidity;BMP_temperature;BMP_pressure;BME280_temperature;BME280_humidity;BME280_pressure;Samples;Min_cycle;Max_cycle;Signal;HPM_P1;HPM_P2
2023/08/27 00:00:17;;;;;;;12.13;11.02;;;;;;;23.80;59.62;94740.00;5077882;28;20185;-71
2023/08/27 00:02:44;;;;;;;11.45;10.52;;;;;;;23.75;59.83;94736.50;5077671;28;20189;-70
2023/08/27 00:05:11;;;;;;;12.68;11.55;;;;;;;23.72;59.59;94731.75;5060402;28;20193;-70
2023/08/27 00:07:38;;;;;;;11.95;10.88;;;;;;;23.68;60.07;94733.88;5077729;28;20189;-70
2023/08/27 00:10:06;;;;;;;12.05;10.95;;;;;;;23.68;60.24;94744.38;5060501;28;20194;-71
2023/08/27 00:12:33;;;;;;;12.05;11.05;;;;;;;23.66;60.11;94738.34;5060234;28;20205;-71
2023/08/27 00:14:59;;;;;;;10.68;9.75;;;;;;;23.64;59.87;94732.34;5060095;28;20197;-71
2023/08/27 00:17:28;;;;;;;11.68;10.65;;;;;;;23.65;59.82;94729.13;5059700;28;20221;-71
2023/08/27 00:19:55;;;;;;;11.98;10.88;;;;;;;23.63;59.98;94722.34;5076621;28;20193;-71
2023/08/27 00:22:22;;;;;;;11.52;10.52;;;;;;;23.60;60.13;94721.19;5076955;28;20197;-71
2023/08/27 00:24:49;;;;;;;12.15;10.68;;;;;;;23.56;59.97;94714.88;5060109;28;20232;-70
2023/08/27 00:27:15;;;;;;;11.60;10.57;;;;;;;23.55;60.41;94716.91;5077201;28;20643;-70
2023/08/27 00:29:42;;;;;;;10.93;10.02;;;;;;;23.52;60.04;94714.19;5059636;28;20209;-70
2023/08/27 00:32:09;;;;;;;10.93;9.93;;;;;;;23.50;60.26;94714.66;5076997;28;20189;-71
2023/08/27 00:34:37;;;;;;;10.45;9.63;;;;;;;23.47;60.34;94709.91;5077082;28;20185;-71
2023/08/27 00:37:04;;;;;;;10.82;9.93;;;;;;;23.40;60.20;94712.94;5076892;28;20263;-70
2023/08/27 00:39:31;;;;;;;11.82;10.73;;;;;;;23.38;60.15;94708.97;5076970;28;20185;-70
2023/08/27 00:41:58;;;;;;;11.63;10.55;;;;;;;23.37;60.10;94699.75;5059179;28;20200;-70
2023/08/27 00:44:24;;;;;;;10.88;9.98;;;;;;;23.38;60.33;94706.94;5077233;28;20200;-70
2023/08/27 00:46:51;;;;;;;11.35;10.35;;;;;;;23.37;60.18;94699.75;5076817;28;20186;-71
2023/08/27 00:49:18;;;;;;;11.15;10.15;;;;;;;23.35;60.45;94702.25;5075645;28;20200;-70
2023/08/27 00:51:48;;;;;;;10.82;9.82;;;;;;;23.32;60.28;94699.53;5076536;28;20200;-70
2023/08/27 00:54:14;;;;;;;11.63;10.63;;;;;;;23.29;60.97;94696.34;5076768;28;20181;-70
2023/08/27 00:56:43;;;;;;;11.30;10.30;;;;;;;23.26;60.69;94697.22;5076439;28;20208;-71
2023/08/27 00:59:10;;;;;;;11.65;10.55;;;;;;;23.25;60.71;94700.50;5058663;28;20200;-70
2023/08/27 01:01:38;;;;;;;11.13;10.13;;;;;;;23.22;60.82;94696.56;5058792;28;20272;-70
2023/08/27 01:04:05;;;;;;;11.25;10.23;;;;;;;23.20;60.77;94710.28;5076579;28;20189;-70
2023/08/27 01:06:32;;;;;;;11.38;10.48;;;;;;;23.21;61.17;94705.44;5076000;28;20525;-70
2023/08/27 01:09:04;;;;;;;10.98;9.88;;;;;;;23.19;60.85;94713.53;5076283;28;20181;-70
2023/08/27 01:11:37;;;;;;;11.63;10.63;;;;;;;23.20;60.70;94710.28;5076183;28;20208;-70
2023/08/27 01:14:06;;;;;;;10.75;9.85;;;;;;;23.22;60.84;94715.44;5058413;28;20323;-71
2023/08/27 01:16:34;;;;;;;11.18;10.20;;;;;;;23.18;60.66;94711.94;5075916;28;20208;-70
2023/08/27 01:19:02;;;;;;;10.63;9.63;;;;;;;23.14;60.79;94702.81;5075908;28;20220;-70
2023/08/27 01:21:30;;;;;;;11.45;10.55;;;;;;;23.12;60.91;94710.91;5075618;28;20567;-71
2023/08/27 01:23:57;;;;;;;11.05;10.05;;;;;;;23.09;60.83;94708.97;5059080;28;20230;-71
2023/08/27 01:26:37;;;;;;;11.00;10.00;;;;;;;23.08;61.05;94713.03;5075907;28;20189;-71
2023/08/27 01:29:08;;;;;;;12.15;10.30;;;;;;;23.06;60.88;94711.44;5058376;28;20192;-70
2023/08/27 01:31:39;;;;;;;10.90;9.90;;;;;;;23.02;61.21;94710.75;5057895;28;20566;-70
2023/08/27 01:34:08;;;;;;;11.00;10.00;;;;;;;22.98;61.14;94712.06;5058307;28;20193;-71
2023/08/27 01:36:36;;;;;;;11.05;10.15;;;;;;;22.94;61.56;94717.00;5058737;28;20193;-71
2023/08/27 01:39:05;;;;;;;10.93;10.02;;;;;;;22.90;61.40;94717.06;5075651;28;20217;-71
2023/08/27 01:41:31;;;;;;;11.98;10.93;;;;;;;22.88;61.71;94719.53;5075700;28;20232;-71
2023/08/27 01:43:58;;;;;;;10.93;10.02;;;;;;;22.89;61.83;94712.69;5055014;28;20230;-71
2023/08/27 01:46:25;;;;;;;10.93;9.93;;;;;;;22.90;61.49;94716.28;5055237;28;20190;-71
2023/08/27 01:48:51;;;;;;;11.02;10.02;;;;;;;22.91;61.17;94715.03;5054624;28;20194;-71
2023/08/27 01:51:18;;;;;;;11.30;10.20;;;;;;;22.94;61.15;94717.78;5055509;28;20185;-71
2023/08/27 01:53:46;;;;;;;11.80;10.77;;;;;;;22.94;60.82;94717.78;5055501;28;20202;-71
2023/08/27 01:56:13;;;;;;;10.95;10.05;;;;;;;22.91;61.15;94715.03;5055108;28;20198;-71
2023/08/27 01:58:40;;;;;;;11.15;10.15;;;;;;;22.88;61.11;94710.31;5054797;28;20225;-70
2023/08/27 02:01:06;;;;;;;11.13;10.23;;;;;;;22.88;61.22;94716.72;5055384;28;20193;-71
2023/08/27 02:03:33;;;;;;;10.82;9.82;;;;;;;22.86;61.52;94713.56;5055451;28;20212;-71
2023/08/27 02:06:00;;;;;;;10.60;9.65;;;;;;;22.85;61.35;94708.38;5071698;28;20248;-71
2023/08/27 02:08:26;;;;;;;11.68;10.57;;;;;;;22.82;61.37;94710.84;5055314;28;20197;-71
2023/08/27 02:10:55;;;;;;;10.73;9.65;;;;;;;22.82;61.24;94704.44;5055427;28;20190;-70
2023/08/27 02:13:21;;;;;;;10.85;9.95;;;;;;;22.78;61.10;94701.72;5054982;28;20591;-71
2023/08/27 02:15:48;;;;;;;11.38;10.20;;;;;;;22.76;61.75;94701.34;5055273;28;20279;-70
2023/08/27 02:18:15;;;;;;;11.13;10.13;;;;;;;22.75;61.58;94696.19;5055151;28;20206;-71
2023/08/27 02:20:43;;;;;;;10.95;9.88;;;;;;;22.75;61.42;94708.22;5054272;28;20292;-71
2023/08/27 02:23:10;;;;;;;11.10;10.10;;;;;;;22.73;61.85;94701.44;5055113;28;20209;-71
2023/08/27 02:25:36;;;;;;;10.82;9.82;;;;;;;22.66;61.67;94701.63;5054191;28;20186;-71
2023/08/27 02:28:05;;;;;;;11.25;10.10;;;;;;;22.63;61.98;94696.91;5054979;28;20205;-71
2023/08/27 02:30:32;;;;;;;11.20;10.10;;;;;;;22.57;62.18;94703.03;5054510;28;20227;-70
2023/08/27 02:32:59;;;;;;;11.85;10.52;;;;;;;22.51;62.32;94699.19;5054432;28;20193;-71
2023/08/27 02:35:25;;;;;;;11.10;10.07;;;;;;;22.48;62.64;94702.09;5054093;28;20204;-71
2023/08/27 02:37:52;;;;;;;10.90;9.90;;;;;;;22.41;62.54;94703.06;5054899;28;20210;-71
2023/08/27 02:40:19;;;;;;;10.95;10.02;;;;;;;22.43;62.88;94702.59;5054620;28;20185;-71
2023/08/27 02:42:46;;;;;;;11.25;10.20;;;;;;;22.35;63.31;94702.00;5053768;28;20241;-70
2023/08/27 02:45:14;;;;;;;11.52;10.55;;;;;;;22.30;63.32;94700.50;5057254;28;20594;-70
2023/08/27 02:47:41;;;;;;;11.23;10.13;;;;;;;22.30;62.98;94696.91;5058907;28;20202;-72
2023/08/27 02:50:08;;;;;;;11.18;10.18;;;;;;;22.35;63.04;94697.16;5058930;28;20178;-71
2023/08/27 02:52:35;;;;;;;11.60;10.15;;;;;;;22.36;62.86;94697.94;5058625;28;20613;-71
2023/08/27 02:55:02;;;;;;;11.25;10.15;;;;;;;22.37;62.72;94704.34;5059041;28;20200;-71
2023/08/27 02:57:28;;;;;;;11.55;10.35;;;;;;;22.35;62.54;94702.78;5058689;28;20198;-71
2023/08/27 02:59:55;;;;;;;10.75;9.85;;;;;;;22.36;62.77;94700.75;5057433;28;20205;-71
2023/08/27 03:02:25;;;;;;;11.13;10.18;;;;;;;22.31;62.95;94704.09;5058897;28;20225;-71
2023/08/27 03:04:52;;;;;;;10.50;9.60;;;;;;;22.25;62.84;94703.81;5057806;28;20199;-71
2023/08/27 03:07:19;;;;;;;12.20;11.05;;;;;;;22.19;63.24;94710.41;5057701;28;20193;-70
2023/08/27 03:09:46;;;;;;;10.98;9.93;;;;;;;22.15;62.82;94702.06;5058678;28;20182;-71
2023/08/27 03:12:12;;;;;;;11.23;10.30;;;;;;;22.14;63.09;94703.28;5058597;28;20186;-71
2023/08/27 03:14:40;;;;;;;10.57;9.60;;;;;;;22.16;63.14;94702.84;5057257;28;20216;-71
2023/08/27 03:17:07;;;;;;;11.40;10.30;;;;;;;22.16;63.04;94705.66;5057579;28;20628;-71
2023/08/27 03:19:35;;;;;;;11.25;10.25;;;;;;;22.11;63.30;94715.34;5058297;28;20378;-71
2023/08/27 03:22:02;;;;;;;10.63;9.63;;;;;;;22.13;63.05;94707.28;5058368;28;20182;-71
2023/08/27 03:24:29;;;;;;;10.45;9.45;;;;;;;22.15;62.93;94704.88;5057487;28;20186;-72
2023/08/27 03:26:55;;;;;;;10.48;9.68;;;;;;;22.13;62.66;94701.69;5057503;28;20263;-71
2023/08/27 03:29:22;;;;;;;10.85;9.85;;;;;;;22.13;62.71;94718.53;5058255;28;20614;-71
2023/08/27 03:31:50;;;;;;;10.30;9.40;;;;;;;22.10;62.73;94719.41;5057849;28;20216;-71
2023/08/27 03:34:17;;;;;;;10.85;9.77;;;;;;;22.09;62.54;94709.41;5057820;28;20591;-71
2023/08/27 03:36:45;;;;;;;11.13;10.13;;;;;;;22.10;62.48;94714.56;5057077;28;20208;-71
2023/08/27 03:39:12;;;;;;;9.48;8.70;;;;;;;22.08;62.76;94707.81;5057197;28;20224;-71
2023/08/27 03:41:39;;;;;;;10.57;9.70;;;;;;;22.03;63.07;94714.72;5058133;28;20214;-71
2023/08/27 03:44:06;;;;;;;11.43;10.43;;;;;;;21.93;63.33;94712.94;5075778;28;20248;-71
2023/08/27 03:46:33;;;;;;;10.43;9.40;;;;;;;21.88;63.40;94714.25;5077979;28;20196;-71
2023/08/27 03:49:00;;;;;;;10.73;9.73;;;;;;;21.90;62.92;94721.47;5060465;28;20193;-71
2023/08/27 03:51:28;;;;;;;10.32;9.32;;;;;;;21.88;62.91;94716.28;5077793;28;20250;-71
2023/08/27 03:53:56;;;;;;;10.70;9.80;;;;;;;21.92;63.45;94719.78;5077688;28;20231;-71
2023/08/27 03:56:23;;;;;;;10.60;9.60;;;;;;;21.93;63.24;94724.19;5059958;28;20250;-71
2023/08/27 03:58:50;;;;;;;10.77;9.48;;;;;;;21.90;63.01;94725.06;5060082;28;20614;-71
2023/08/27 04:01:17;;;;;;;13.30;10.43;;;;;;;21.89;63.72;94717.84;5077647;28;20204;-71
2023/08/27 04:03:44;;;;;;;9.70;9.00;;;;;;;21.83;63.80;94726.00;5060238;28;20274;-71
2023/08/27 04:06:11;;;;;;;10.60;9.70;;;;;;;21.82;63.77;94730.06;5077247;28;20197;-71
2023/08/27 04:08:38;;;;;;;10.27;9.38;;;;;;;21.80;64.06;94732.50;5077566;28;20189;-71
2023/08/27 04:11:06;;;;;;;10.23;9.27;;;;;;;21.78;63.89;94737.72;5076536;28;20207;-71
2023/08/27 04:13:33;;;;;;;10.88;9.70;;;;;;;21.76;64.24;94731.00;5059786;28;20197;-71
2023/08/27 04:16:00;;;;;;;11.05;9.90;;;;;;;21.76;64.17;94739.41;5077183;28;20231;-71
2023/08/27 04:18:27;;;;;;;10.38;9.30;;;;;;;21.73;64.19;94738.25;5076953;28;20200;-71
2023/08/27 04:20:54;;;;;;;10.38;9.43;;;;;;;21.71;63.86;94748.31;5059815;28;20193;-71
2023/08/27 04:23:20;;;;;;;10.85;9.48;;;;;;;21.71;64.10;94745.50;5059681;28;20208;-71
2023/08/27 04:25:48;;;;;;;12.15;10.40;;;;;;;21.75;64.25;94743.41;5077105;28;20197;-71
2023/08/27 04:28:16;;;;;;;10.93;9.82;;;;;;;21.79;64.04;94738.56;5076960;28;20173;-71
2023/08/27 04:30:43;;;;;;;10.30;9.18;;;;;;;21.79;63.70;94735.75;5077103;28;20207;-71
2023/08/27 04:33:10;;;;;;;10.93;9.45;;;;;;;21.74;64.10;94739.03;5076270;28;20197;-71
2023/08/27 04:35:38;;;;;;;11.15;10.00;;;;;;;21.75;64.31;94727.41;5076722;28;20185;-72
2023/08/27 04:38:06;;;;;;;11.00;10.00;;;;;;;21.76;64.49;94731.78;5076617;28;20243;-71
2023/08/27 04:40:33;;;;;;;10.48;9.38;;;;;;;21.74;64.59;94731.41;5059539;28;20186;-71
2023/08/27 04:43:00;;;;;;;10.77;9.52;;;;;;;21.73;64.97;94735.44;5076804;28;20237;-71
2023/08/27 04:45:28;;;;;;;10.45;9.32;;;;;;;21.75;64.65;94730.22;5059292;28;20205;-72
2023/08/27 04:47:55;;;;;;;10.45;9.55;;;;;;;21.76;64.64;94733.78;5076789;28;20199;-71
2023/08/27 04:50:22;;;;;;;9.82;9.02;;;;;;;21.81;64.49;94747.31;5076887;28;20189;-71
2023/08/27 04:52:48;;;;;;;10.43;9.38;;;;;;;21.83;64.71;94744.88;5059054;28;20189;-71
2023/08/27 04:55:15;;;;;;;10.80;9.90;;;;;;;21.83;65.31;94756.88;5076387;28;20184;-71
2023/08/27 04:57:42;;;;;;;10.70;9.70;;;;;;;21.85;65.14;94745.22;5059201;28;20193;-71
2023/08/27 05:00:13;;;;;;;11.15;9.90;;;;;;;21.85;64.44;94748.81;5076279;28;20216;-71
2023/08/27 05:02:41;;;;;;;9.65;8.85;;;;;;;21.88;64.31;94747.94;5076359;28;20226;-71
2023/08/27 05:05:08;;;;;;;10.05;8.98;;;;;;;21.90;63.94;94750.34;5076505;28;20181;-71
2023/08/27 05:07:35;;;;;;;9.98;9.07;;;;;;;21.93;63.89;94749.44;5058076;28;20200;-71
2023/08/27 05:10:02;;;;;;;10.60;9.52;;;;;;;21.97;63.49;94744.56;5076409;28;20197;-71
2023/08/27 05:12:28;;;;;;;10.18;9.30;;;;;;;22.01;63.43;94742.47;5059208;28;20204;-71
2023/08/27 05:14:55;;;;;;;9.40;8.60;;;;;;;22.10;63.45;94753.88;5076102;28;20196;-71
2023/08/27 05:17:22;;;;;;;9.55;8.63;;;;;;;22.13;63.59;94754.25;5058590;28;20597;-71
2023/08/27 05:19:50;;;;;;;10.40;9.40;;;;;;;22.13;62.85;94755.03;5058467;28;20213;-71
2023/08/27 05:22:17;;;;;;;10.00;9.15;;;;;;;22.16;63.38;94748.59;5075793;28;20200;-71
2023/08/27 05:24:43;;;;;;;10.35;9.35;;;;;;;22.19;63.80;94755.34;5058485;28;20208;-71
2023/08/27 05:27:10;;;;;;;10.15;9.23;;;;;;;22.21;63.33;94750.88;5058171;28;20208;-71
2023/08/27 05:29:37;;;;;;;10.65;9.55;;;;;;;22.22;63.47;94757.25;5058310;28;20181;-71
2023/08/27 05:32:05;;;;;;;10.43;9.32;;;;;;;22.26;63.14;94755.16;5075893;28;20181;-71
2023/08/27 05:34:32;;;;;;;10.50;9.35;;;;;;;22.30;63.10;94765.13;5058239;28;20208;-71
2023/08/27 05:37:00;;;;;;;11.45;10.23;;;;;;;22.33;62.92;94763.44;5058204;28;20208;-71
2023/08/27 05:39:27;;;;;;;10.10;9.30;;;;;;;22.33;62.29;94760.63;5058145;28;20235;-71
2023/08/27 05:41:59;;;;;;;10.05;9.15;;;;;;;22.33;61.76;94763.44;5075701;28;20231;-71
2023/08/27 05:44:26;;;;;;;10.95;9.85;;;;;;;22.34;61.80;94765.03;5055422;28;20204;-71
2023/08/27 05:46:52;;;;;;;11.88;10.68;;;;;;;22.37;62.20;94760.53;5037914;28;20582;-71
2023/08/27 05:49:19;;;;;;;11.77;10.57;;;;;;;22.40;62.00;94756.84;5054810;28;20193;-71
2023/08/27 05:51:46;;;;;;;12.35;11.13;;;;;;;22.44;61.88;94766.00;5038262;28;20404;-71
2023/08/27 05:54:14;;;;;;;12.65;11.43;;;;;;;22.48;61.25;94752.69;5038058;28;20190;-71
2023/08/27 05:56:42;;;;;;;12.73;11.48;;;;;;;22.48;61.45;94753.47;5038343;28;20202;-71
2023/08/27 05:59:09;;;;;;;14.23;12.82;;;;;;;22.53;61.64;94746.53;5055273;28;20293;-71
2023/08/27 06:01:36;;;;;;;28.10;25.55;;;;;;;22.55;61.58;94744.84;5037937;28;20201;-71
2023/08/27 06:04:03;;;;;;;19.55;17.85;;;;;;;22.59;62.08;94753.19;5055451;28;20182;-71
2023/08/27 06:06:30;;;;;;;16.52;15.02;;;;;;;22.62;61.92;94749.50;5054658;28;20210;-71
2023/08/27 06:08:58;;;;;;;13.45;12.25;;;;;;;22.67;62.58;94751.78;5038089;28;20259;-71
2023/08/27 06:11:26;;;;;;;12.32;11.13;;;;;;;22.70;62.67;94745.28;5037872;28;20209;-71
2023/08/27 06:13:52;;;;;;;12.35;11.18;;;;;;;22.74;62.67;94745.22;5037446;28;20260;-71
2023/08/27 06:16:19;;;;;;;13.25;11.23;;;;;;;22.77;61.74;94739.50;5055288;28;20193;-72
2023/08/27 06:18:46;;;;;;;12.52;11.43;;;;;;;22.78;61.53;94737.47;5054657;28;20209;-70
2023/08/27 06:21:13;;;;;;;10.85;9.85;;;;;;;22.80;61.43;94735.81;5055131;28;20197;-70
2023/08/27 06:23:39;;;;;;;11.27;10.18;;;;;;;22.85;61.29;94740.09;5037522;28;20251;-71
2023/08/27 06:26:06;;;;;;;13.70;12.30;;;;;;;22.86;61.66;94729.63;5037794;28;20209;-70
2023/08/27 06:28:34;;;;;;;12.95;11.77;;;;;;;22.87;61.36;94731.22;5055186;28;20186;-71
2023/08/27 06:31:02;;;;;;;12.60;11.43;;;;;;;22.91;61.00;94726.28;5055115;28;20204;-71
2023/08/27 06:33:28;;;;;;;13.18;11.20;;;;;;;22.96;62.00;94729.41;5055046;28;20288;-71
2023/08/27 06:35:55;;;;;;;11.90;10.82;;;;;;;22.98;61.81;94732.53;5055213;28;20193;-71
2023/08/27 06:38:22;;;;;;;12.27;11.02;;;;;;;23.00;61.37;94726.50;5037968;28;20202;-70
2023/08/27 06:40:49;;;;;;;12.18;10.65;;;;;;;23.01;60.43;94726.03;5036999;28;20202;-71
2023/08/27 06:43:16;;;;;;;10.82;9.73;;;;;;;23.07;60.70;94726.31;5065222;28;20664;-71
2023/08/27 06:45:44;;;;;;;11.18;10.10;;;;;;;23.12;61.23;94733.41;5074972;28;20255;-71
2023/08/27 06:48:10;;;;;;;10.77;9.88;;;;;;;23.15;60.03;94735.34;5057166;28;20204;-71
2023/08/27 06:50:37;;;;;;;12.35;11.23;;;;;;;23.19;59.67;94733.22;5075135;28;20191;-70
2023/08/27 06:53:04;;;;;;;12.18;11.07;;;;;;;23.23;59.51;94740.31;5057302;28;20208;-71
2023/08/27 06:55:31;;;;;;;11.52;10.30;;;;;;;23.28;59.96;94730.56;5057221;28;20695;-71
2023/08/27 06:57:58;;;;;;;11.73;10.70;;;;;;;23.30;59.06;94728.88;5074915;28;20177;-71
2023/08/27 07:00:25;;;;;;;10.10;9.15;;;;;;;23.37;59.46;94730.69;5075202;28;20205;-71
2023/08/27 07:02:53;;;;;;;10.73;9.60;;;;;;;23.40;59.36;94735.44;5074728;28;20246;-71
2023/08/27 07:05:20;;;;;;;11.02;9.85;;;;;;;23.45;59.30;94734.88;5057122;28;20204;-71
2023/08/27 07:07:47;;;;;;;9.93;9.13;;;;;;;23.50;58.74;94745.63;5057148;28;20201;-71
2023/08/27 07:10:14;;;;;;;10.15;9.15;;;;;;;23.53;58.71;94738.31;5057546;28;20197;-71
2023/08/27 07:12:41;;;;;;;10.85;9.85;;;;;;;23.56;58.50;94737.41;5074639;28;20189;-71
2023/08/27 07:15:08;;;;;;;9.65;8.65;;;;;;;23.61;58.55;94745.31;5057099;28;20205;-70
2023/08/27 07:17:36;;;;;;;10.68;9.73;;;;;;;23.64;58.02;94752.88;5073723;28;20189;-71
2023/08/27 07:20:07;;;;;;;10.45;9.55;;;;;;;23.66;57.14;94750.41;5074742;28;20270;-71
2023/08/27 07:22:34;;;;;;;11.32;10.15;;;;;;;23.73;57.08;94749.44;5074531;28;20220;-71
2023/08/27 07:25:01;;;;;;;9.43;8.52;;;;;;;23.79;57.58;94744.84;5056727;28;20197;-71
2023/08/27 07:27:27;;;;;;;8.93;8.02;;;;;;;23.86;57.59;94755.13;5074255;28;20200;-71
2023/08/27 07:29:54;;;;;;;8.93;7.97;;;;;;;23.92;57.53;94744.84;5056978;28;20189;-71
2023/08/27 07:32:21;;;;;;;9.60;8.63;;;;;;;23.96;57.20;94746.31;5078512;28;20204;-71
2023/08/27 07:34:47;;;;;;;9.20;8.25;;;;;;;24.01;56.83;94753.44;5077386;28;20636;-71
2023/08/27 07:37:16;;;;;;;8.25;7.47;;;;;;;24.04;56.27;94744.09;5078228;28;20246;-71
2023/08/27 07:39:42;;;;;;;8.82;7.93;;;;;;;24.06;56.22;94743.66;5060329;28;20523;-71
2023/08/27 07:42:09;;;;;;;9.75;8.75;;;;;;;24.08;56.07;94732.72;5077780;28;20205;-71
2023/08/27 07:44:36;;;;;;;9.30;8.18;;;;;;;24.12;56.05;94739.81;5078018;28;20193;-71
2023/08/27 07:47:03;;;;;;;8.73;7.93;;;;;;;24.16;55.50;94736.91;5060211;28;20196;-71
2023/08/27 07:49:30;;;;;;;9.70;8.70;;;;;;;24.22;55.95;94732.25;5060506;28;20216;-71
2023/08/27 07:51:56;;;;;;;10.05;9.15;;;;;;;24.31;55.46;94732.41;5078035;28;20235;-71
2023/08/27 07:54:24;;;;;;;9.50;8.70;;;;;;;24.38;55.69;94728.56;5077354;28;20604;-71
2023/08/27 07:56:51;;;;;;;9.60;8.70;;;;;;;24.43;55.10;94728.81;5077828;28;20246;-70
2023/08/27 07:59:18;;;;;;;9.80;8.70;;;;;;;24.50;55.14;94725.75;5077381;28;20220;-71
2023/08/27 08:01:45;;;;;;;9.60;8.73;;;;;;;24.57;54.46;94727.56;5077678;28;20208;-71
2023/08/27 08:04:11;;;;;;;8.93;8.02;;;;;;;24.65;54.16;94717.63;5077594;28;20204;-71
2023/08/27 08:06:38;;;;;;;8.90;8.20;;;;;;;24.80;54.81;94712.31;5060247;28;20204;-71
2023/08/27 08:09:05;;;;;;;9.32;8.43;;;;;;;25.00;54.29;94709.22;5077563;28;20181;-70
2023/08/27 08:11:34;;;;;;;9.07;8.20;;;;;;;25.25;51.97;94707.59;5077155;28;20189;-71
2023/08/27 08:14:00;;;;;;;9.23;8.32;;;;;;;25.40;52.19;94703.78;5060102;28;20608;-71
2023/08/27 08:16:28;;;;;;;8.50;7.70;;;;;;;25.52;51.75;94699.31;5059815;28;20625;-71
2023/08/27 08:18:55;;;;;;;8.68;8.00;;;;;;;25.60;51.16;94703.47;5077086;28;20229;-71
2023/08/27 08:21:21;;;;;;;9.05;7.72;;;;;;;25.67;50.85;94705.22;5076947;28;20213;-71
2023/08/27 08:23:48;;;;;;;8.13;7.35;;;;;;;25.71;50.77;94700.25;5077210;28;20267;-71
2023/08/27 08:26:15;;;;;;;8.98;8.18;;;;;;;25.79;50.94;94700.81;5060008;28;20204;-71
2023/08/27 08:28:43;;;;;;;8.00;7.18;;;;;;;25.86;50.25;94687.19;5076857;28;20185;-71
2023/08/27 08:31:10;;;;;;;8.57;7.68;;;;;;;25.97;50.20;94683.97;5076804;28;20659;-71
2023/08/27 08:33:37;;;;;;;9.88;7.82;;;;;;;26.12;51.44;94684.19;5059434;28;20200;-71
2023/08/27 08:36:05;;;;;;;8.10;7.25;;;;;;;26.35;50.24;94672.34;5059865;28;20196;-71
2023/08/27 08:38:33;;;;;;;9.55;7.80;;;;;;;26.52;50.13;94672.91;5076959;28;20250;-71
2023/08/27 08:41:03;;;;;;;8.40;7.68;;;;;;;26.70;48.87;94672.19;5076620;28;20236;-71
2023/08/27 08:43:36;;;;;;;8.45;7.22;;;;;;;27.01;48.21;94665.59;5058017;28;20233;-71
2023/08/27 08:46:05;;;;;;;8.10;7.30;;;;;;;27.28;47.00;94671.31;5059604;28;20196;-71
2023/08/27 08:48:33;;;;;;;8.40;7.65;;;;;;;27.43;46.48;94667.88;5076556;28;20177;-71
2023/08/27 08:51:01;;;;;;;7.85;7.00;;;;;;;27.60;46.34;94669.13;5076830;28;20186;-71
2023/08/27 08:53:30;;;;;;;9.23;8.05;;;;;;;27.67;47.75;94663.13;5058974;28;20203;-71
2023/08/27 08:56:01;;;;;;;8.68;7.80;;;;;;;27.72;46.33;94668.13;5076533;28;20212;-71
2023/08/27 08:58:28;;;;;;;8.48;7.40;;;;;;;27.89;44.73;94657.28;5058933;28;20209;-71
2023/08/27 09:00:55;;;;;;;7.97;7.28;;;;;;;27.98;46.36;94659.28;5075822;28;20271;-71
2023/08/27 09:03:24;;;;;;;7.50;6.78;;;;;;;28.11;42.94;94665.56;5075429;28;20197;-71
2023/08/27 09:05:51;;;;;;;8.00;7.20;;;;;;;28.20;43.42;94650.56;5076300;28;20189;-71
2023/08/27 09:08:19;;;;;;;9.00;8.13;;;;;;;28.30;43.13;94654.94;5058691;28;20193;-71
2023/08/27 09:10:47;;;;;;;7.60;6.85;;;;;;;28.47;42.45;94646.84;5041831;28;20201;-71
2023/08/27 09:13:18;;;;;;;7.13;6.53;;;;;;;28.60;42.07;94640.94;5076129;28;20181;-71
2023/08/27 09:15:46;;;;;;;6.55;6.05;;;;;;;28.73;40.84;94661.38;5058806;28;20292;-71
2023/08/27 09:18:12;;;;;;;6.65;6.05;;;;;;;28.90;41.53;94645.47;5058533;28;20205;-72
2023/08/27 09:20:41;;;;;;;7.65;7.00;;;;;;;29.03;40.84;94648.09;5075778;28;20209;-72
2023/08/27 09:23:09;;;;;;;7.25;6.63;;;;;;;29.01;41.55;94639.28;5058374;28;20204;-71
2023/08/27 09:25:36;;;;;;;8.00;7.10;;;;;;;29.01;42.15;94640.09;5058267;28;20258;-71
2023/08/27 09:28:03;;;;;;;7.00;6.40;;;;;;;29.11;41.50;94631.50;5075587;28;20527;-71
2023/08/27 09:30:31;;;;;;;7.70;7.00;;;;;;;29.19;40.02;94624.94;5075885;28;20185;-71
2023/08/27 09:32:58;;;;;;;7.30;6.32;;;;;;;29.22;41.27;94618.28;5058362;28;20193;-71
2023/08/27 09:35:36;;;;;;;7.93;6.95;;;;;;;29.43;39.01;94626.97;5075303;28;20229;-73
2023/08/27 09:38:04;;;;;;;6.95;6.35;;;;;;;29.60;39.38;94615.94;5057969;28;20246;-72
2023/08/27 09:40:31;;;;;;;7.38;6.68;;;;;;;29.67;38.87;94615.56;5058384;28;20261;-72
2023/08/27 09:43:07;;;;;;;6.63;6.03;;;;;;;29.71;38.65;94616.94;5075733;28;20277;-71
2023/08/27 09:45:34;;;;;;;7.97;6.47;;;;;;;29.82;40.21;94612.72;5075483;28;20631;-71
2023/08/27 09:48:01;;;;;;;7.13;6.53;;;;;;;29.93;39.04;94612.91;5075517;28;20182;-71
2023/08/27 09:50:29;;;;;;;7.43;6.72;;;;;;;29.98;38.12;94615.06;5058494;28;20193;-72
2023/08/27 09:53:07;;;;;;;7.18;6.47;;;;;;;30.03;38.10;94599.34;5057736;28;20260;-71
2023/08/27 09:55:34;;;;;;;7.18;6.22;;;;;;;30.01;38.72;94610.44;5057993;28;20203;-71
2023/08/27 09:58:01;;;;;;;8.45;6.25;;;;;;;29.93;38.69;94607.22;5075573;28;20194;-71
2023/08/27 10:00:29;;;;;;;6.82;6.25;;;;;;;29.93;37.06;94607.22;5058229;28;20247;-71
2023/08/27 10:02:56;;;;;;;6.50;5.90;;;;;;;30.00;37.58;94595.47;5057805;28;20201;-71
2023/08/27 10:05:28;;;;;;;7.47;6.55;;;;;;;30.06;36.90;94595.53;5075433;28;20190;-71
2023/08/27 10:07:59;;;;;;;7.70;6.88;;;;;;;30.04;38.83;94587.50;5074561;28;20197;-72
2023/08/27 10:10:28;;;;;;;6.97;6.28;;;;;;;30.12;36.89;94582.19;5075492;28;20182;-71
2023/08/27 10:12:55;;;;;;;7.53;6.80;;;;;;;30.25;37.38;94584.72;5074436;28;20197;-71
2023/08/27 10:15:23;;;;;;;7.20;6.60;;;;;;;30.34;37.19;94587.47;5075299;28;20185;-71
2023/08/27 10:17:53;;;;;;;8.02;5.82;;;;;;;30.36;35.19;94588.56;5057621;28;20326;-71
2023/08/27 10:20:20;;;;;;;7.10;6.07;;;;;;;30.51;35.92;94585.66;5075587;28;20248;-71
2023/08/27 10:22:48;;;;;;;6.75;6.13;;;;;;;30.60;36.53;94576.19;5057515;28;20208;-71
2023/08/27 10:25:16;;;;;;;8.05;6.13;;;;;;;30.69;35.60;94574.00;5075231;28;20185;-72
2023/08/27 10:27:46;;;;;;;7.13;5.82;;;;;;;30.43;35.78;94573.09;5057467;28;20250;-71
2023/08/27 10:30:13;;;;;;;8.02;6.47;;;;;;;30.34;35.66;94559.81;5075121;28;20204;-72
2023/08/27 10:32:40;;;;;;;8.40;6.60;;;;;;;30.37;35.44;94561.66;5057366;28;20204;-71
2023/08/27 10:35:09;;;;;;;6.80;6.10;;;;;;;30.43;36.19;94559.69;5075131;28;20196;-71
2023/08/27 10:37:37;;;;;;;6.18;5.57;;;;;;;30.33;35.62;94557.47;5057481;28;20193;-71
2023/08/27 10:40:08;;;;;;;7.88;6.13;;;;;;;30.09;36.44;94555.53;5058527;28;20727;-70
2023/08/27 10:42:36;;;;;;;8.38;6.05;;;;;;;30.06;35.80;94561.41;5077343;28;20331;-71
2023/08/27 10:45:16;;;;;;;5.93;5.30;;;;;;;30.35;34.10;94547.13;5075710;28;20195;-72
2023/08/27 10:47:43;;;;;;;9.50;5.43;;;;;;;30.42;35.80;94552.41;5057487;28;20223;-72
2023/08/27 10:50:12;;;;;;;8.30;6.03;;;;;;;30.31;35.99;94540.88;5074345;28;20258;-73
2023/08/27 10:52:49;;;;;;;9.25;6.13;;;;;;;29.88;37.38;94531.16;5075039;28;20189;-74
2023/08/27 10:55:20;;;;;;;6.60;6.00;;;;;;;29.42;37.66;94540.97;5057203;28;20197;-74
2023/08/27 10:57:47;;;;;;;6.45;5.82;;;;;;;29.16;38.34;94537.91;5057241;28;20239;-74
2023/08/27 11:00:17;;;;;;;6.03;5.43;;;;;;;29.06;38.29;94529.97;5057646;28;20262;-75
2023/08/27 11:02:57;;;;;;;6.25;5.68;;;;;;;29.01;37.64;94529.38;5074585;28;20185;-75
2023/08/27 11:05:27;;;;;;;7.53;5.53;;;;;;;29.38;37.28;94531.88;5075939;28;20185;-75
2023/08/27 11:07:58;;;;;;;6.47;5.55;;;;;;;29.44;38.02;94529.88;5078258;28;20215;-75
2023/08/27 11:10:31;;;;;;;7.18;5.43;;;;;;;29.10;37.28;94524.88;5078811;28;20185;-73
2023/08/27 11:12:58;;;;;;;6.32;5.28;;;;;;;28.86;37.70;94519.22;5060858;28;20198;-73
2023/08/27 11:15:31;;;;;;;6.10;5.50;;;;;;;28.93;37.62;94516.00;5077379;28;20211;-73
2023/08/27 11:17:59;;;;;;;5.68;4.85;;;;;;;28.75;37.81;94514.88;5061371;28;20240;-73
2023/08/27 11:20:27;;;;;;;6.78;4.90;;;;;;;28.69;36.80;94531.03;5078151;28;20208;-74
2023/08/27 11:22:58;;;;;;;5.78;4.68;;;;;;;29.07;36.01;94514.50;5060980;28;20197;-73
2023/08/27 11:25:26;;;;;;;6.57;5.30;;;;;;;29.18;36.26;94512.63;5078280;28;20189;-74
2023/08/27 11:27:53;;;;;;;5.75;4.82;;;;;;;29.86;34.52;94508.91;5078288;28;20242;-74